Time;durP1;ratioP1;P1;durP2;ratioP2;P2;SDS_P1;SDS_P2;PMS_P1;PMS_P2;Temp;Humidity;BMP_temperature;BMP_pressure;BME280_temperature;BME280_humidity;BME280_pressure;Samples;Min_cycle;Max_cycle;Signal;HPM_P1;HPM_P2
2023/03/25 00:00:16;;;;;;;2.42;1.23;;;6.30;93.40;;;;;;4981246;28;20065;-71
2023/03/25 00:02:44;;;;;;;2.55;1.35;;;6.30;93.10;;;;;;4983492;28;20104;-71
2023/03/25 00:05:15;;;;;;;4.75;1.55;;;6.30;93.30;;;;;;4983359;28;20154;-71
2023/03/25 00:07:43;;;;;;;7.53;1.30;;;6.30;93.60;;;;;;4984329;28;20077;-71
2023/03/25 00:10:12;;;;;;;14.10;1.70;;;6.30;93.80;;;;;;4983904;28;20073;-71
2023/03/25 00:12:41;;;;;;;3.83;1.63;;;6.30;93.90;;;;;;4984007;28;20133;-71
2023/03/25 00:15:10;;;;;;;6.25;1.42;;;6.30;94.20;;;;;;4981770;28;20629;-71
2023/03/25 00:17:37;;;;;;;8.70;1.77;;;6.30;94.10;;;;;;4978712;28;20050;-71
2023/03/25 00:20:10;;;;;;;7.10;1.75;;;6.20;94.50;;;;;;4980311;28;20050;-71
2023/03/25 00:22:39;;;;;;;2.55;1.48;;;6.30;94.80;;;;;;4980180;28;20052;-71
2023/03/25 00:25:09;;;;;;;4.03;1.27;;;6.30;94.70;;;;;;4980964;28;20459;-71
2023/03/25 00:27:37;;;;;;;4.10;1.65;;;6.30;94.90;;;;;;4983490;28;20050;-71
2023/03/25 00:30:05;;;;;;;3.97;1.75;;;6.30;94.70;;;;;;4978816;28;20050;-71
2023/03/25 00:32:32;;;;;;;4.53;2.13;;;6.30;94.70;;;;;;4978174;28;20054;-71
2023/03/25 00:34:59;;;;;;;5.50;1.77;;;6.30;95.00;;;;;;4977119;28;20065;-71
2023/03/25 00:37:26;;;;;;;5.20;1.63;;;6.30;95.10;;;;;;4986062;28;20060;-71
2023/03/25 00:39:52;;;;;;;2.53;1.50;;;6.30;95.20;;;;;;4981107;28;20062;-71
2023/03/25 00:42:24;;;;;;;6.82;1.73;;;6.30;95.20;;;;;;4980605;28;20077;-71
2023/03/25 00:44:52;;;;;;;8.75;2.00;;;6.30;95.40;;;;;;4974786;28;20046;-71
2023/03/25 00:47:20;;;;;;;3.03;1.75;;;6.30;95.50;;;;;;4981957;28;20062;-71
2023/03/25 00:49:48;;;;;;;5.85;1.67;;;6.20;95.50;;;;;;4983584;28;20073;-71
2023/03/25 00:52:15;;;;;;;15.15;2.33;;;6.20;95.70;;;;;;4980730;28;20078;-71
2023/03/25 00:54:42;;;;;;;9.48;2.40;;;6.20;96.00;;;;;;4982539;28;20058;-71
2023/03/25 00:57:09;;;;;;;6.60;2.50;;;6.30;96.10;;;;;;4982515;28;20423;-70
2023/03/25 00:59:36;;;;;;;7.22;2.72;;;6.20;96.00;;;;;;4982757;28;20057;-71
2023/03/25 01:02:03;;;;;;;12.00;3.30;;;6.30;96.20;;;;;;4984923;28;20047;-71
2023/03/25 01:04:30;;;;;;;9.40;3.40;;;6.30;96.20;;;;;;4987089;28;20593;-71
2023/03/25 01:06:57;;;;;;;12.65;3.22;;;6.30;96.40;;;;;;4987395;28;20153;-71
2023/03/25 01:09:24;;;;;;;7.03;2.72;;;6.30;96.40;;;;;;4983679;28;20054;-71
2023/03/25 01:11:51;;;;;;;9.45;3.00;;;6.30;96.30;;;;;;4987208;28;20419;-71
2023/03/25 01:14:20;;;;;;;7.28;2.70;;;6.40;96.20;;;;;;4985814;28;20042;-71
2023/03/25 01:16:47;;;;;;;13.02;3.40;;;6.40;96.20;;;;;;4987092;28;20188;-71
2023/03/25 01:19:14;;;;;;;6.45;2.92;;;6.50;96.00;;;;;;4985716;28;20191;-71
2023/03/25 01:21:41;;;;;;;9.63;2.97;;;6.70;95.60;;;;;;4984373;28;20053;-71
2023/03/25 01:24:11;;;;;;;11.75;3.53;;;6.70;95.60;;;;;;4986198;28;20050;-71
2023/03/25 01:26:40;;;;;;;12.35;3.38;;;6.80;95.10;;;;;;4985411;28;20078;-71
2023/03/25 01:29:07;;;;;;;12.80;3.90;;;6.90;95.20;;;;;;4984489;28;20112;-71
2023/03/25 01:31:33;;;;;;;6.22;3.17;;;6.90;95.20;;;;;;4987610;28;20085;-71
2023/03/25 01:34:00;;;;;;;11.73;3.90;;;6.90;94.90;;;;;;4986146;28;20082;-71
2023/03/25 01:36:30;;;;;;;8.43;3.55;;;7.00;95.00;;;;;;4984660;28;20156;-71
2023/03/25 01:39:00;;;;;;;9.13;3.47;;;7.00;94.60;;;;;;4985264;28;20057;-71
2023/03/25 01:41:28;;;;;;;13.38;3.58;;;7.00;94.70;;;;;;4986436;28;20062;-71
2023/03/25 01:44:21;;;;;;;13.00;4.82;;;7.10;94.40;;;;;;4981074;28;20057;-71
2023/03/25 01:46:53;;;;;;;10.10;3.13;;;7.10;94.20;;;;;;4983999;28;20089;-71
2023/03/25 01:49:28;;;;;;;11.82;3.92;;;7.10;94.20;;;;;;4987010;28;20085;-71
2023/03/25 01:52:01;;;;;;;7.65;3.50;;;7.10;94.30;;;;;;4983912;28;20050;-71
2023/03/25 01:54:28;;;;;;;16.20;3.40;;;7.20;94.10;;;;;;4985814;28;20058;-71
2023/03/25 01:56:55;;;;;;;6.35;2.47;;;7.20;94.20;;;;;;4979691;28;20081;-71
2023/03/25 01:59:24;;;;;;;9.68;3.05;;;7.10;94.10;;;;;;4987943;28;20054;-71
2023/03/25 02:01:52;;;;;;;10.77;4.18;;;7.10;94.10;;;;;;4986333;28;20046;-70
2023/03/25 02:04:33;;;;;;;11.18;3.90;;;7.10;94.10;;;;;;4984577;28;20054;-71
2023/03/25 02:07:01;;;;;;;10.90;3.97;;;7.10;94.20;;;;;;4986296;28;20050;-71
2023/03/25 02:09:28;;;;;;;9.68;3.78;;;7.10;94.40;;;;;;4981801;28;20396;-71
2023/03/25 02:11:55;;;;;;;11.93;3.55;;;7.10;94.60;;;;;;4983304;28;20060;-71
2023/03/25 02:14:26;;;;;;;9.35;4.38;;;7.00;94.60;;;;;;4985086;28;20053;-71
2023/03/25 02:17:02;;;;;;;10.57;3.83;;;7.10;94.60;;;;;;4986206;28;20388;-71
2023/03/25 02:19:53;;;;;;;11.98;3.72;;;7.10;94.50;;;;;;5000226;28;20042;-71
2023/03/25 02:22:46;;;;;;;12.88;3.40;;;7.10;94.20;;;;;;4986027;28;20066;-71
2023/03/25 02:25:34;;;;;;;7.20;3.63;;;7.20;94.00;;;;;;4981649;28;20483;-71
2023/03/25 02:28:24;;;;;;;7.85;3.45;;;7.20;93.80;;;;;;4977858;28;20510;-71
2023/03/25 02:31:03;;;;;;;10.68;4.18;;;7.20;93.80;;;;;;4985009;28;20089;-71
2023/03/25 02:33:41;;;;;;;16.42;4.47;;;7.20;93.80;;;;;;4980678;28;20519;-71
2023/03/25 02:36:38;;;;;;;11.40;3.75;;;7.20;93.80;;;;;;4986094;28;20121;-71
2023/03/25 02:39:11;;;;;;;;;;;7.20;93.50;;;;;;5000031;28;20052;-71
2023/03/25 02:41:59;;;;;;;10.55;3.75;;;7.20;93.80;;;;;;4983024;28;20638;-71
2023/03/25 02:44:34;;;;;;;10.07;4.10;;;7.20;93.70;;;;;;4982375;28;20050;-71
2023/03/25 02:47:06;;;;;;;11.75;3.92;;;7.20;93.50;;;;;;4981386;28;20442;-72
2023/03/25 02:49:39;;;;;;;7.15;3.83;;;7.20;93.60;;;;;;4985065;28;20061;-71
2023/03/25 02:52:36;;;;;;;13.38;3.55;;;7.20;93.60;;;;;;4984577;28;20495;-71
2023/03/25 02:55:08;;;;;;;16.45;3.65;;;7.20;93.70;;;;;;4981028;28;20678;-71
2023/03/25 02:57:39;;;;;;;7.00;3.47;;;7.20;93.70;;;;;;4984379;28;20061;-71
2023/03/25 03:00:15;;;;;;;7.45;3.47;;;7.10;93.80;;;;;;4996898;28;20647;-71
2023/03/25 03:02:58;;;;;;;;;;;7.10;93.90;;;;;;4984638;28;20050;-71
2023/03/25 03:05:27;;;;;;;7.70;2.97;;;7.10;94.00;;;;;;4999405;28;20016;-71
2023/03/25 03:08:03;;;;;;;9.50;3.55;;;7.10;93.90;;;;;;4984748;28;20411;-71
2023/03/25 03:10:40;;;;;;;10.45;3.50;;;7.10;93.70;;;;;;4985566;28;20086;-71
2023/03/25 03:13:23;;;;;;;10.18;3.42;;;7.10;93.90;;;;;;4984979;28;20054;-71
2023/03/25 03:16:06;;;;;;;8.80;3.88;;;7.10;93.80;;;;;;4982073;28;20572;-71
2023/03/25 03:18:51;;;;;;;9.43;3.70;;;7.00;93.80;;;;;;4982072;28;20061;-71
2023/03/25 03:21:38;;;;;;;16.40;4.45;;;7.10;93.80;;;;;;4983843;28;20126;-71
2023/03/25 03:24:15;;;;;;;12.80;4.45;;;7.10;93.80;;;;;;4983185;28;20050;-71
2023/03/25 03:27:10;;;;;;;12.13;4.15;;;7.10;93.70;;;;;;4982899;28;20495;-71
2023/03/25 03:29:42;;;;;;;15.93;4.10;;;7.10;93.50;;;;;;4984772;28;20085;-71
2023/03/25 03:32:15;;;;;;;16.48;4.30;;;7.10;93.40;;;;;;4984003;28;20054;-71
2023/03/25 03:35:00;;;;;;;9.98;4.05;;;7.20;93.30;;;;;;4978682;28;20100;-71
2023/03/25 03:37:38;;;;;;;7.15;3.22;;;7.20;93.00;;;;;;4983554;28;20061;-71
2023/03/25 03:40:11;;;;;;;13.02;3.72;;;7.10;93.10;;;;;;4985182;28;20046;-71
2023/03/25 03:43:07;;;;;;;12.63;3.38;;;7.20;93.00;;;;;;4995522;28;20043;-71
2023/03/25 03:45:45;;;;;;;11.23;3.35;;;7.20;93.00;;;;;;4991697;28;20046;-71
2023/03/25 03:48:19;;;;;;;11.32;3.22;;;7.20;92.70;;;;;;4978723;28;20810;-71
2023/03/25 03:50:52;;;;;;;12.68;4.20;;;7.20;92.60;;;;;;4981268;28;20057;-71
2023/03/25 03:53:34;;;;;;;14.07;3.25;;;7.20;92.80;;;;;;4980366;28;20066;-71
2023/03/25 03:56:11;;;;;;;6.32;2.88;;;7.20;92.50;;;;;;4983696;28;20062;-71
2023/03/25 03:58:41;;;;;;;8.30;3.33;;;7.20;92.50;;;;;;4982781;28;20057;-71
2023/03/25 04:01:36;;;;;;;7.25;3.13;;;7.20;92.30;;;;;;4984578;28;20137;-71
2023/03/25 04:04:06;;;;;;;9.90;3.10;;;7.30;92.30;;;;;;4979497;28;20082;-71
2023/03/25 04:06:45;;;;;;;7.97;3.00;;;7.30;92.20;;;;;;4982864;28;20328;-71
2023/03/25 04:09:40;;;;;;;10.13;3.35;;;7.20;92.40;;;;;;4996563;28;20082;-71
2023/03/25 04:12:15;;;;;;;10.07;3.20;;;7.20;92.20;;;;;;4973026;28;20061;-71
2023/03/25 04:14:43;;;;;;;11.88;3.35;;;7.20;92.10;;;;;;4984282;28;20058;-71
2023/03/25 04:17:10;;;;;;;12.98;3.35;;;7.30;91.90;;;;;;4984204;28;20053;-71
2023/03/25 04:19:37;;;;;;;11.73;3.35;;;7.30;91.70;;;;;;4983502;28;20054;-71
2023/03/25 04:22:04;;;;;;;7.75;3.03;;;7.30;91.50;;;;;;4983940;28;20481;-71
2023/03/25 04:24:32;;;;;;;9.63;2.90;;;7.30;91.50;;;;;;4982750;28;20060;-71
2023/03/25 04:27:03;;;;;;;6.22;3.00;;;7.30;91.40;;;;;;4983147;28;20054;-71
2023/03/25 04:29:30;;;;;;;7.78;2.90;;;7.30;91.30;;;;;;4982427;28;20058;-71
2023/03/25 04:31:58;;;;;;;7.35;2.58;;;7.30;91.40;;;;;;4981479;28;20054;-71
2023/03/25 04:34:26;;;;;;;12.38;2.70;;;7.30;91.40;;;;;;4981677;28;20054;-71
2023/03/25 04:36:53;;;;;;;9.63;2.97;;;7.30;91.30;;;;;;4986549;28;20049;-70
2023/03/25 04:39:24;;;;;;;7.35;2.92;;;7.20;91.40;;;;;;4979221;28;20140;-71
2023/03/25 04:42:02;;;;;;;8.00;2.80;;;7.20;91.50;;;;;;4982399;28;20054;-71
2023/03/25 04:44:32;;;;;;;8.10;2.80;;;7.10;91.70;;;;;;4983831;28;20050;-71
2023/03/25 04:47:01;;;;;;;9.95;2.47;;;7.10;91.80;;;;;;4984133;28;20054;-71
2023/03/25 04:49:28;;;;;;;8.15;2.50;;;7.10;91.70;;;;;;4974709;28;20066;-71
2023/03/25 04:51:55;;;;;;;9.65;2.35;;;7.20;91.80;;;;;;4977846;28;20064;-71
2023/03/25 04:54:22;;;;;;;8.10;2.38;;;7.10;91.80;;;;;;4983764;28;20060;-72
2023/03/25 04:56:51;;;;;;;11.00;3.47;;;7.10;91.80;;;;;;4983389;28;20073;-71
2023/03/25 04:59:18;;;;;;;9.45;2.95;;;7.20;91.80;;;;;;4976676;28;20051;-71
2023/03/25 05:01:46;;;;;;;9.25;2.70;;;7.20;91.60;;;;;;4983983;28;20069;-73
2023/03/25 05:04:16;;;;;;;6.00;2.92;;;7.30;91.60;;;;;;4981194;28;20133;-72
2023/03/25 05:06:49;;;;;;;12.15;3.47;;;7.30;91.40;;;;;;4983824;28;20093;-72
2023/03/25 05:09:20;;;;;;;10.15;2.90;;;7.30;91.40;;;;;;4981455;28;20502;-73
2023/03/25 05:11:49;;;;;;;8.48;3.25;;;7.40;91.20;;;;;;4982823;28;20288;-72
2023/03/25 05:14:18;;;;;;;10.90;3.30;;;7.40;90.90;;;;;;4979851;28;20066;-72
2023/03/25 05:16:45;;;;;;;7.15;3.40;;;7.50;90.80;;;;;;4981798;28;20061;-72
2023/03/25 05:19:14;;;;;;;9.38;3.50;;;7.50;90.80;;;;;;4980809;28;20053;-72
2023/03/25 05:21:41;;;;;;;10.68;4.20;;;7.50;91.00;;;;;;4984708;28;20114;-72
2023/03/25 05:24:09;;;;;;;11.43;4.13;;;7.60;91.10;;;;;;4983413;28;20046;-72
2023/03/25 05:26:38;;;;;;;11.93;3.67;;;7.60;91.50;;;;;;4981602;28;20092;-74
2023/03/25 05:29:15;;;;;;;10.50;3.95;;;7.60;91.70;;;;;;4976639;28;20046;-75
2023/03/25 05:31:44;;;;;;;10.32;3.80;;;7.70;91.60;;;;;;4982294;28;20789;-74
2023/03/25 05:34:13;;;;;;;8.23;3.70;;;7.70;91.80;;;;;;4983219;28;20042;-75
2023/03/25 05:36:40;;;;;;;10.40;3.45;;;7.70;91.80;;;;;;4984852;28;20045;-75
2023/03/25 05:39:07;;;;;;;13.95;4.20;;;7.70;91.60;;;;;;4977634;28;20061;-75
2023/03/25 05:41:44;;;;;;;8.88;4.22;;;7.70;91.40;;;;;;4971807;28;20500;-74
2023/03/25 05:44:14;;;;;;;9.52;4.03;;;7.70;91.00;;;;;;4976480;28;20054;-75
2023/03/25 05:46:40;;;;;;;9.57;3.65;;;7.80;91.30;;;;;;4976355;28;20511;-75
2023/03/25 05:49:07;;;;;;;13.43;3.75;;;7.80;91.00;;;;;;4984814;28;20072;-75
2023/03/25 05:51:37;;;;;;;13.35;4.05;;;7.80;90.70;;;;;;4984714;28;20171;-75
2023/03/25 05:54:09;;;;;;;8.82;3.60;;;7.80;90.40;;;;;;4986622;28;20050;-75
2023/03/25 05:56:38;;;;;;;9.30;3.47;;;7.90;90.30;;;;;;4983165;28;20145;-73
2023/03/25 05:59:05;;;;;;;11.63;3.22;;;7.90;90.50;;;;;;4987824;28;20105;-74
2023/03/25 06:01:32;;;;;;;5.80;2.72;;;7.90;90.30;;;;;;4985934;28;20060;-74
2023/03/25 06:04:01;;;;;;;10.10;3.28;;;8.00;90.20;;;;;;4985919;28;20058;-74
2023/03/25 06:06:30;;;;;;;10.88;3.28;;;8.00;89.90;;;;;;4983673;28;20050;-74
2023/03/25 06:08:58;;;;;;;10.32;2.78;;;8.00;89.80;;;;;;4982885;28;20076;-74
2023/03/25 06:11:25;;;;;;;7.68;2.78;;;8.10;89.40;;;;;;4985392;28;20054;-75
2023/03/25 06:13:52;;;;;;;5.93;2.60;;;8.10;88.60;;;;;;4984078;28;20136;-74
2023/03/25 06:16:26;;;;;;;7.13;2.63;;;8.10;88.70;;;;;;4979718;28;20053;-74
2023/03/25 06:18:58;;;;;;;5.53;2.75;;;8.10;88.40;;;;;;4980492;28;20047;-76
2023/03/25 06:21:33;;;;;;;6.72;3.00;;;8.10;88.20;;;;;;4983659;28;20559;-72
2023/03/25 06:24:01;;;;;;;4.97;2.40;;;8.20;88.10;;;;;;4984363;28;20070;-74
2023/03/25 06:26:28;;;;;;;7.75;2.53;;;8.20;88.20;;;;;;4983063;28;20069;-75
2023/03/25 06:28:55;;;;;;;10.07;2.42;;;8.20;88.20;;;;;;4984559;28;20050;-75
2023/03/25 06:31:27;;;;;;;7.90;2.70;;;8.20;88.30;;;;;;4988155;28;20054;-76
2023/03/25 06:33:55;;;;;;;12.13;2.53;;;8.20;88.90;;;;;;4999469;28;20046;-75
2023/03/25 06:36:24;;;;;;;12.23;2.97;;;8.30;88.70;;;;;;4983150;28;20092;-76
2023/03/25 06:38:52;;;;;;;4.97;2.28;;;8.20;88.60;;;;;;4997328;28;20077;-76
2023/03/25 06:41:20;;;;;;;6.03;2.72;;;8.20;88.70;;;;;;4987705;28;20062;-76
2023/03/25 06:43:47;;;;;;;7.78;3.05;;;8.30;88.70;;;;;;5000383;28;20133;-76
2023/03/25 06:46:15;;;;;;;7.72;2.60;;;8.30;89.00;;;;;;4981140;28;20757;-76
2023/03/25 06:48:42;;;;;;;9.02;2.60;;;8.30;89.50;;;;;;4984431;28;20066;-77
2023/03/25 06:51:09;;;;;;;7.68;2.83;;;8.40;88.90;;;;;;4983051;28;20065;-76
2023/03/25 06:53:36;;;;;;;6.03;2.63;;;8.50;88.70;;;;;;4983300;28;20046;-75
2023/03/25 06:56:03;;;;;;;5.65;2.70;;;8.60;88.90;;;;;;4985358;28;20050;-76
2023/03/25 06:58:33;;;;;;;7.22;2.92;;;8.70;88.40;;;;;;4984694;28;20518;-75
2023/03/25 07:01:05;;;;;;;5.28;2.88;;;8.80;88.20;;;;;;4980718;28;20097;-75
2023/03/25 07:03:35;;;;;;;8.77;3.15;;;8.90;88.00;;;;;;4981208;28;20094;-75
2023/03/25 07:06:03;;;;;;;4.80;3.00;;;9.10;87.30;;;;;;4981337;28;20383;-75
2023/03/25 07:08:30;;;;;;;9.68;2.95;;;9.70;86.80;;;;;;4982676;28;20679;-73
2023/03/25 07:11:05;;;;;;;6.90;2.95;;;10.70;82.90;;;;;;4981006;28;20112;-74
2023/03/25 07:13:32;;;;;;;3.05;2.35;;;11.80;79.70;;;;;;4984015;28;20815;-73
2023/03/25 07:15:59;;;;;;;9.68;2.75;;;12.30;76.50;;;;;;4998686;28;20050;-71
2023/03/25 07:18:26;;;;;;;6.63;2.97;;;12.60;74.90;;;;;;4980252;28;20050;-74
2023/03/25 07:20:53;;;;;;;5.20;2.53;;;11.90;75.90;;;;;;4984802;28;20051;-72
2023/03/25 07:23:20;;;;;;;5.35;2.63;;;11.30;77.30;;;;;;4984294;28;20426;-74
2023/03/25 07:25:47;;;;;;;5.68;2.80;;;11.00;79.60;;;;;;4981206;28;20170;-73
2023/03/25 07:28:14;;;;;;;8.45;2.90;;;10.90;81.20;;;;;;4984836;28;20583;-74
2023/03/25 07:30:41;;;;;;;9.38;2.85;;;11.40;81.50;;;;;;4980769;28;20096;-73
2023/03/25 07:33:08;;;;;;;7.03;2.63;;;12.00;76.10;;;;;;4985742;28;20050;-74
2023/03/25 07:35:35;;;;;;;8.40;2.42;;;11.90;78.30;;;;;;4983525;28;20072;-74
2023/03/25 07:38:02;;;;;;;10.93;2.75;;;11.80;77.10;;;;;;4990858;28;20141;-74
2023/03/25 07:40:30;;;;;;;10.23;2.50;;;11.60;77.20;;;;;;4982491;28;20799;-74
2023/03/25 07:42:57;;;;;;;9.15;2.55;;;11.40;77.40;;;;;;4984828;28;20061;-75
2023/03/25 07:45:24;;;;;;;9.75;2.92;;;11.10;77.90;;;;;;4981959;28;20089;-73
2023/03/25 07:47:52;;;;;;;5.72;2.55;;;11.00;79.40;;;;;;4984758;28;20101;-75
2023/03/25 07:50:21;;;;;;;8.98;2.50;;;11.40;79.40;;;;;;4979747;28;20168;-75
2023/03/25 07:52:50;;;;;;;8.45;2.97;;;11.60;77.00;;;;;;4978983;28;20109;-75
2023/03/25 07:55:17;;;;;;;4.78;2.38;;;11.30;76.70;;;;;;4974758;28;20054;-74
2023/03/25 07:57:44;;;;;;;8.25;2.88;;;11.10;77.70;;;;;;4977532;28;20057;-74
2023/03/25 08:00:12;;;;;;;11.13;2.58;;;10.80;78.20;;;;;;4974039;28;20092;-73
2023/03/25 08:02:39;;;;;;;4.22;2.22;;;10.60;79.00;;;;;;4994562;28;20050;-73
2023/03/25 08:05:06;;;;;;;3.22;2.10;;;10.50;79.10;;;;;;4978209;28;20065;-74
2023/03/25 08:07:33;;;;;;;5.88;2.90;;;10.30;79.60;;;;;;4975877;28;20054;-74
2023/03/25 08:10:00;;;;;;;6.57;3.40;;;10.20;80.00;;;;;;4972822;28;20058;-73
2023/03/25 08:12:27;;;;;;;10.52;3.10;;;10.30;80.40;;;;;;4975917;28;20050;-72
2023/03/25 08:14:58;;;;;;;9.25;2.47;;;10.30;81.10;;;;;;4978080;28;20054;-76
2023/03/25 08:17:25;;;;;;;6.40;2.60;;;10.50;79.80;;;;;;4975869;28;20046;-72
2023/03/25 08:19:52;;;;;;;9.05;2.58;;;10.70;79.20;;;;;;4974768;28;20048;-71
2023/03/25 08:22:19;;;;;;;9.02;2.55;;;10.70;79.10;;;;;;4974474;28;20069;-71
2023/03/25 08:24:46;;;;;;;10.50;3.10;;;10.80;79.40;;;;;;4973958;28;20062;-70
2023/03/25 08:27:13;;;;;;;4.15;2.33;;;10.90;79.00;;;;;;4981085;28;20077;-70
2023/03/25 08:29:43;;;;;;;8.15;2.42;;;10.90;78.50;;;;;;4978775;28;20042;-70
2023/03/25 08:32:10;;;;;;;6.53;2.58;;;11.00;79.40;;;;;;4976293;28;20054;-70
2023/03/25 08:34:38;;;;;;;6.53;2.38;;;11.30;77.80;;;;;;4974790;28;20050;-70
2023/03/25 08:37:06;;;;;;;5.45;2.17;;;11.20;76.50;;;;;;4975500;28;20094;-70
2023/03/25 08:39:38;;;;;;;8.88;2.47;;;11.00;77.40;;;;;;4975012;28;20474;-70
2023/03/25 08:42:10;;;;;;;11.43;2.65;;;10.90;77.60;;;;;;4971949;28;20057;-70
2023/03/25 08:44:38;;;;;;;8.00;2.45;;;10.80;76.80;;;;;;4973695;28;20137;-71
2023/03/25 08:47:05;;;;;;;7.07;2.40;;;10.70;78.50;;;;;;4969343;28;20760;-70
2023/03/25 08:49:32;;;;;;;11.50;3.35;;;10.80;78.70;;;;;;4973543;28;20089;-70
2023/03/25 08:52:00;;;;;;;6.13;2.20;;;10.80;78.10;;;;;;4973555;28;20186;-70
2023/03/25 08:54:28;;;;;;;4.78;2.65;;;11.00;78.00;;;;;;4975760;28;20938;-71
2023/03/25 08:56:55;;;;;;;5.72;2.08;;;11.10;78.00;;;;;;4971732;28;20084;-71
2023/03/25 08:59:22;;;;;;;8.88;2.65;;;11.20;76.80;;;;;;4971486;28;20046;-70
2023/03/25 09:01:49;;;;;;;9.45;2.35;;;11.30;77.60;;;;;;4975633;28;20054;-72
2023/03/25 09:04:16;;;;;;;7.97;2.03;;;11.70;77.40;;;;;;4972987;28;20511;-71
2023/03/25 09:06:43;;;;;;;5.25;2.10;;;12.20;75.90;;;;;;4972231;28;20046;-71
2023/03/25 09:09:30;;;;;;;129.63;11.95;;;12.30;74.00;;;;;;4975404;28;20066;-72
2023/03/25 09:11:57;;;;;;;6.43;2.20;;;12.10;74.40;;;;;;4974835;28;21040;-71
2023/03/25 09:14:24;;;;;;;92.15;8.55;;;12.10;73.50;;;;;;4974438;28;20062;-71
2023/03/25 09:16:51;;;;;;;28.65;4.38;;;12.00;73.30;;;;;;4976188;28;20058;-71
2023/03/25 09:19:17;;;;;;;115.65;10.23;;;12.20;73.70;;;;;;4977116;28;20360;-71
2023/03/25 09:21:44;;;;;;;58.97;5.63;;;12.10;73.40;;;;;;4976969;28;20088;-73
2023/03/25 09:24:14;;;;;;;13.57;2.60;;;12.00;73.40;;;;;;4978222;28;20050;-73
2023/03/25 09:26:41;;;;;;;10.25;2.00;;;11.90;73.00;;;;;;4979586;28;20054;-74
2023/03/25 09:29:08;;;;;;;7.35;2.03;;;11.90;73.30;;;;;;4978634;28;20415;-73
2023/03/25 09:31:34;;;;;;;9.20;1.67;;;11.80;72.90;;;;;;4975327;28;21516;-73
2023/03/25 09:34:05;;;;;;;6.35;1.92;;;11.60;73.00;;;;;;4980238;28;20526;-73
2023/03/25 09:36:32;;;;;;;12.25;2.00;;;11.50;73.80;;;;;;4978218;28;20061;-74
2023/03/25 09:38:58;;;;;;;11.18;2.33;;;11.30;74.30;;;;;;4981177;28;20050;-75
2023/03/25 09:42:00;;;;;;;7.05;2.22;;;11.30;74.00;;;;;;4980907;28;20046;-72
2023/03/25 09:44:51;;;;;;;11.35;2.55;;;11.20;74.80;;;;;;4908818;28;20052;-74
2023/03/25 09:47:20;;;;;;;8.32;1.60;;;11.10;76.20;;;;;;4979426;28;20077;-74
2023/03/25 09:49:52;;;;;;;9.82;1.90;;;11.30;75.40;;;;;;4994570;28;20062;-75
2023/03/25 09:52:27;;;;;;;10.95;3.03;;;11.60;75.50;;;;;;4979306;28;20054;-75
2023/03/25 09:55:14;;;;;;;7.35;2.15;;;11.90;74.70;;;;;;4979786;28;20057;-75
2023/03/25 09:57:54;;;;;;;13.65;3.90;;;12.20;72.30;;;;;;4978852;28;20117;-75
2023/03/25 10:00:25;;;;;;;8.35;1.65;;;12.30;72.20;;;;;;4992519;28;20455;-75
2023/03/25 10:03:18;;;;;;;5.60;2.00;;;12.20;70.20;;;;;;4982927;28;20057;-74
2023/03/25 10:06:00;;;;;;;6.38;2.17;;;12.10;71.80;;;;;;4981460;28;20073;-73
2023/03/25 10:08:41;;;;;;;4.75;1.55;;;12.40;73.00;;;;;;4996467;28;20046;-74
2023/03/25 10:11:35;;;;;;;4.65;1.70;;;12.70;67.90;;;;;;4997869;28;20058;-74
2023/03/25 10:14:18;;;;;;;5.88;2.28;;;12.40;69.90;;;;;;4988886;28;20050;-73
2023/03/25 10:16:50;;;;;;;8.90;2.20;;;12.00;69.80;;;;;;4991305;28;20247;-74
2023/03/25 10:19:44;;;;;;;8.63;2.13;;;11.60;72.40;;;;;;4988986;28;20046;-74
2023/03/25 10:22:15;;;;;;;7.05;1.83;;;11.30;76.10;;;;;;4976196;28;20046;-73
2023/03/25 10:24:55;;;;;;;5.95;1.50;;;11.60;78.60;;;;;;4988113;28;20050;-73
2023/03/25 10:27:30;;;;;;;8.82;1.38;;;13.00;74.40;;;;;;4977406;28;20472;-73
2023/03/25 10:30:08;;;;;;;3.75;0.95;;;15.20;68.70;;;;;;4998995;28;20057;-74
2023/03/25 10:32:53;;;;;;;12.98;1.30;;;17.10;61.60;;;;;;4991358;28;20495;-76
2023/03/25 10:35:26;;;;;;;2.60;0.90;;;17.60;58.90;;;;;;4988143;28;20058;-73
2023/03/25 10:38:19;;;;;;;3.88;0.82;;;18.50;56.70;;;;;;4992868;28;20074;-73
2023/03/25 10:40:49;;;;;;;6.38;1.02;;;19.00;56.80;;;;;;4977562;28;20054;-75
2023/03/25 10:43:18;;;;;;;3.47;0.88;;;19.80;54.30;;;;;;4986663;28;20047;-75
2023/03/25 10:45:47;;;;;;;6.40;1.40;;;19.70;56.60;;;;;;5000767;28;20061;-75
2023/03/25 10:48:26;;;;;;;5.90;1.33;;;20.40;53.50;;;;;;4994402;28;20112;-74
2023/03/25 10:51:07;;;;;;;3.72;1.02;;;20.00;50.60;;;;;;4988685;28;20674;-74
2023/03/25 10:53:35;;;;;;;4.97;1.17;;;18.60;53.80;;;;;;4980640;28;20058;-74
2023/03/25 10:56:04;;;;;;;2.63;1.00;;;17.20;57.30;;;;;;4979863;28;20065;-74
2023/03/25 10:58:32;;;;;;;2.53;1.10;;;16.20;58.10;;;;;;4982396;28;20069;-74
2023/03/25 11:01:03;;;;;;;8.57;1.27;;;15.30;59.40;;;;;;4982214;28;20059;-74
2023/03/25 11:03:34;;;;;;;4.45;1.23;;;15.00;60.70;;;;;;4981558;28;20054;-74
2023/03/25 11:06:01;;;;;;;6.60;1.67;;;14.60;62.00;;;;;;4979856;28;20540;-74
2023/03/25 11:08:28;;;;;;;3.25;1.20;;;14.00;63.30;;;;;;4982184;28;20065;-74
2023/03/25 11:10:56;;;;;;;3.25;1.02;;;13.50;65.20;;;;;;4982101;28;20061;-74
2023/03/25 11:13:28;;;;;;;5.25;1.50;;;13.00;66.20;;;;;;4983518;28;20054;-75
2023/03/25 11:16:02;;;;;;;4.65;1.52;;;12.70;67.50;;;;;;4996421;28;20165;-73
2023/03/25 11:18:40;;;;;;;6.32;1.45;;;12.50;68.90;;;;;;4981423;28;21172;-72
2023/03/25 11:21:11;;;;;;;3.53;1.85;;;12.40;69.40;;;;;;4983110;28;20047;-72
2023/03/25 11:23:46;;;;;;;5.82;2.47;;;12.30;70.00;;;;;;4983222;28;20073;-72
2023/03/25 11:26:35;;;;;;;;;;;12.20;69.90;;;;;;4983627;28;20050;-72
2023/03/25 11:29:06;;;;;;;5.93;1.67;;;12.20;71.70;;;;;;4983977;28;20302;-72
2023/03/25 11:31:36;;;;;;;9.77;2.05;;;12.40;71.60;;;;;;4984280;28;20056;-72
2023/03/25 11:34:11;;;;;;;2.78;1.50;;;12.90;70.50;;;;;;4980618;28;20475;-72
2023/03/25 11:36:54;;;;;;;2.85;1.88;;;13.50;67.30;;;;;;4995116;28;20507;-72
2023/03/25 11:39:41;;;;;;;5.72;1.63;;;13.60;67.00;;;;;;4980746;28;20139;-72
2023/03/25 11:42:24;;;;;;;5.70;1.50;;;13.30;64.90;;;;;;4986680;28;20042;-73
2023/03/25 11:45:30;;;;;;;3.75;1.10;;;13.10;66.30;;;;;;4983867;28;20181;-73
2023/03/25 11:48:08;;;;;;;5.40;1.08;;;12.80;64.40;;;;;;4938447;28;20066;-72
2023/03/25 11:50:36;;;;;;;2.25;0.80;;;12.30;64.60;;;;;;4993526;28;20103;-73
2023/03/25 11:53:04;;;;;;;2.38;0.40;;;10.70;76.30;;;;;;4982192;28;20082;-73
2023/03/25 11:55:44;;;;;;;5.38;0.70;;;9.90;82.10;;;;;;4996596;28;20058;-75
2023/03/25 11:58:26;;;;;;;5.68;0.50;;;9.10;86.00;;;;;;4982150;28;20078;-73
2023/03/25 12:01:01;;;;;;;1.25;0.60;;;8.40;89.60;;;;;;4994799;28;20078;-75
2023/03/25 12:03:30;;;;;;;2.33;0.50;;;8.10;91.40;;;;;;4981422;28;20050;-74
2023/03/25 12:06:06;;;;;;;3.38;0.70;;;7.80;92.40;;;;;;4972891;28;20065;-73
2023/03/25 12:08:51;;;;;;;2.53;0.35;;;7.60;93.60;;;;;;4987818;28;20058;-74
2023/03/25 12:12:09;;;;;;;1.70;0.25;;;7.40;94.40;;;;;;4964042;28;20050;-75
2023/03/25 12:14:54;;;;;;;1.17;0.50;;;7.10;95.50;;;;;;4964211;28;20058;-75
2023/03/25 12:17:49;;;;;;;1.80;0.45;;;7.10;98.00;;;;;;4985159;28;20065;-75
2023/03/25 12:20:28;;;;;;;1.27;0.35;;;7.10;99.30;;;;;;4983209;28;20054;-74
2023/03/25 12:23:01;;;;;;;5.55;0.47;;;7.20;99.40;;;;;;4964420;28;21295;-73
2023/03/25 12:25:52;;;;;;;1.55;0.28;;;7.20;99.10;;;;;;4973012;28;20050;-73
2023/03/25 12:28:46;;;;;;;0.40;0.22;;;7.30;98.00;;;;;;4967234;28;20050;-71
2023/03/25 12:31:32;;;;;;;3.17;0.45;;;7.20;97.80;;;;;;4968103;28;20050;-71
2023/03/25 12:34:29;;;;;;;1.65;0.90;;;7.10;98.50;;;;;;4975189;28;20180;-75
2023/03/25 12:37:04;;;;;;;2.30;0.40;;;7.20;100.00;;;;;;4978903;28;20052;-74
2023/03/25 12:39:56;;;;;;;6.28;0.88;;;7.60;100.00;;;;;;4980309;28;20050;-74
2023/03/25 12:42:32;;;;;;;4.18;0.90;;;8.00;100.00;;;;;;4975717;28;20056;-71
2023/03/25 12:45:15;;;;;;;1.70;0.70;;;9.00;100.00;;;;;;4977760;28;20053;-72
2023/03/25 12:47:46;;;;;;;26.83;2.78;;;10.00;97.50;;;;;;4978407;28;20055;-72
2023/03/25 12:50:35;;;;;;;2.88;1.33;;;10.50;93.30;;;;;;4978053;28;21066;-71
2023/03/25 12:53:46;;;;;;;3.80;0.88;;;11.00;92.10;;;;;;4978160;28;20498;-71
2023/03/25 12:56:32;;;;;;;13.27;1.05;;;12.00;88.00;;;;;;4994676;28;20065;-72
2023/03/25 12:59:20;;;;;;;5.85;1.10;;;13.40;83.30;;;;;;4982780;28;20042;-72
2023/03/25 13:01:55;;;;;;;6.47;0.80;;;14.60;78.90;;;;;;4983721;28;20157;-73
2023/03/25 13:04:31;;;;;;;4.38;1.02;;;14.50;75.60;;;;;;4980648;28;20057;-72
2023/03/25 13:07:01;;;;;;;6.15;1.25;;;14.80;76.40;;;;;;4982768;28;20069;-73
2023/03/25 13:09:55;;;;;;;3.20;0.77;;;14.40;73.80;;;;;;4990264;28;20109;-73
2023/03/25 13:12:36;;;;;;;4.90;0.90;;;14.60;73.40;;;;;;4982016;28;20455;-72
2023/03/25 13:15:06;;;;;;;5.10;1.10;;;14.40;73.10;;;;;;4985245;28;20058;-72
2023/03/25 13:17:43;;;;;;;4.07;0.90;;;14.10;76.00;;;;;;4986940;28;20060;-72
2023/03/25 13:20:10;;;;;;;7.28;1.00;;;14.10;72.00;;;;;;5000870;28;20050;-72